createdAt,value
2022-12-24T00:01:10.499Z,90.20
2022-12-24T00:03:39.801Z,90.10
2022-12-24T00:06:08.861Z,90.20
2022-12-24T00:08:36.871Z,90.60
2022-12-24T00:11:04.850Z,90.50
2022-12-24T00:13:32.715Z,90.30
2022-12-24T00:16:00.633Z,90.50
2022-12-24T00:18:28.732Z,90.60
2022-12-24T00:20:57.921Z,89.10
2022-12-24T00:23:25.787Z,89.00
2022-12-24T00:25:53.585Z,89.30
2022-12-24T00:28:21.511Z,88.80
2022-12-24T00:30:49.498Z,88.80
2022-12-24T00:33:24.151Z,88.20
2022-12-24T00:35:53.629Z,87.30
2022-12-24T00:38:22.828Z,86.30
2022-12-24T00:40:50.636Z,84.90
2022-12-24T00:43:18.464Z,83.70
2022-12-24T00:45:46.362Z,82.60
2022-12-24T00:48:14.256Z,82.50
2022-12-24T00:50:42.204Z,82.30
2022-12-24T00:53:10.114Z,81.50
2022-12-24T00:55:39.327Z,81.40
2022-12-24T00:58:07.133Z,80.60
2022-12-24T01:00:35.233Z,80.00
2022-12-24T01:03:03.137Z,79.40
2022-12-24T01:05:30.071Z,80.00
2022-12-24T01:07:57.890Z,80.00
2022-12-24T01:10:25.992Z,80.20
2022-12-24T01:12:55.215Z,79.80
2022-12-24T01:15:23.161Z,81.40
2022-12-24T01:17:51.037Z,81.20
2022-12-24T01:20:19.500Z,82.10
2022-12-24T01:22:48.704Z,83.20
2022-12-24T01:25:16.882Z,82.10
2022-12-24T01:27:44.732Z,81.40
2022-12-24T01:30:15.949Z,82.50
2022-12-24T01:32:43.822Z,81.20
2022-12-24T01:35:12.565Z,80.30
2022-12-24T01:37:40.810Z,78.80
2022-12-24T01:40:24.155Z,77.90
2022-12-24T01:43:11.999Z,78.60
2022-12-24T01:45:51.544Z,77.10
2022-12-24T01:48:26.562Z,77.70
2022-12-24T01:51:00.404Z,78.50
2022-12-24T01:53:28.809Z,78.30
2022-12-24T01:55:56.883Z,78.70
2022-12-24T01:58:27.193Z,79.10
2022-12-24T02:00:56.395Z,80.00
2022-12-24T02:03:24.390Z,80.80
2022-12-24T02:05:54.524Z,82.20
2022-12-24T02:08:22.827Z,82.90
2022-12-24T02:10:51.783Z,83.80
2022-12-24T02:13:22.519Z,83.90
2022-12-24T02:16:04.400Z,84.00
2022-12-24T02:18:37.679Z,84.50
2022-12-24T02:21:31.071Z,84.80
2022-12-24T02:24:29.023Z,85.00
2022-12-24T02:27:12.460Z,84.40
2022-12-24T02:30:11.828Z,84.80
2022-12-24T02:32:57.797Z,83.80
2022-12-24T02:35:34.033Z,83.20
2022-12-24T02:38:07.020Z,83.50
2022-12-24T02:40:40.639Z,85.00
2022-12-24T02:43:13.659Z,84.90
2022-12-24T02:45:47.647Z,85.90
2022-12-24T02:48:17.899Z,86.90
2022-12-24T02:50:57.253Z,86.30
2022-12-24T02:53:25.171Z,87.00
2022-12-24T02:56:08.373Z,87.40
2022-12-24T02:58:47.081Z,86.60
2022-12-24T03:01:24.051Z,86.80
2022-12-24T03:04:12.396Z,85.90
2022-12-24T03:06:46.210Z,85.50
2022-12-24T03:09:21.771Z,84.70
2022-12-24T03:11:56.497Z,84.90
2022-12-24T03:14:24.894Z,82.90
2022-12-24T03:16:54.120Z,84.00
2022-12-24T03:19:23.063Z,83.80
2022-12-24T03:21:52.423Z,83.50
2022-12-24T03:24:20.987Z,83.50
2022-12-24T03:26:49.217Z,84.40
2022-12-24T03:29:18.834Z,84.30
2022-12-24T03:31:49.620Z,84.60
2022-12-24T03:34:19.809Z,84.10
2022-12-24T03:36:49.297Z,83.60
2022-12-24T03:39:17.175Z,83.70
2022-12-24T03:41:45.060Z,83.40
2022-12-24T03:44:13.019Z,84.30
2022-12-24T03:46:41.169Z,84.50
2022-12-24T03:49:09.013Z,84.00
2022-12-24T03:51:38.177Z,84.70
2022-12-24T03:54:06.051Z,84.00
2022-12-24T03:56:33.958Z,83.50
2022-12-24T03:59:01.817Z,84.20
2022-12-24T04:01:29.989Z,84.80
2022-12-24T04:03:57.950Z,84.60
2022-12-24T04:06:25.779Z,85.30
2022-12-24T04:08:55.018Z,85.40
2022-12-24T04:11:22.872Z,85.50
2022-12-24T04:13:50.787Z,86.00
2022-12-24T04:16:18.699Z,86.80
2022-12-24T04:18:46.535Z,86.50
2022-12-24T04:21:14.779Z,86.40
2022-12-24T04:23:43.682Z,86.00
2022-12-24T04:26:14.404Z,86.80
2022-12-24T04:28:43.318Z,87.50
2022-12-24T04:31:13.520Z,87.50
2022-12-24T04:33:41.490Z,87.90
2022-12-24T04:36:12.077Z,88.10
2022-12-24T04:38:40.061Z,87.90
2022-12-24T04:41:09.805Z,88.40
2022-12-24T04:43:39.138Z,87.90
2022-12-24T04:46:08.704Z,88.60
2022-12-24T04:48:36.949Z,88.80
2022-12-24T04:51:06.351Z,88.50
2022-12-24T04:53:34.700Z,89.10
2022-12-24T04:56:02.890Z,88.30
2022-12-24T04:58:30.749Z,88.30
2022-12-24T05:01:05.793Z,87.90
2022-12-24T05:03:33.756Z,87.50
2022-12-24T05:06:04.907Z,87.40
2022-12-24T05:08:33.794Z,87.80
2022-12-24T05:11:02.938Z,87.40
2022-12-24T05:13:40.397Z,86.90
2022-12-24T05:16:12.405Z,87.30
2022-12-24T05:18:40.948Z,86.80
2022-12-24T05:21:14.331Z,87.10
2022-12-24T05:23:59.856Z,87.40
2022-12-24T05:26:30.491Z,87.40
2022-12-24T05:28:59.763Z,87.50
2022-12-24T05:31:30.887Z,88.20
2022-12-24T05:33:58.765Z,88.20
2022-12-24T05:36:27.110Z,88.80
2022-12-24T05:38:55.034Z,88.70
2022-12-24T05:41:22.939Z,88.70
2022-12-24T05:43:51.205Z,88.40
2022-12-24T05:46:21.236Z,88.60
2022-12-24T05:48:51.215Z,88.40
2022-12-24T05:51:22.260Z,89.20
2022-12-24T05:53:51.093Z,89.60
2022-12-24T05:56:20.652Z,89.80
2022-12-24T05:58:49.022Z,90.10
2022-12-24T06:01:17.500Z,90.50
2022-12-24T06:03:45.667Z,90.50
2022-12-24T06:06:19.165Z,90.80
2022-12-24T06:08:47.154Z,90.60
2022-12-24T06:11:16.787Z,90.90
2022-12-24T06:13:44.875Z,91.20
2022-12-24T06:16:15.325Z,91.10
2022-12-24T06:18:43.630Z,91.80
2022-12-24T06:21:12.707Z,91.50
2022-12-24T06:23:44.082Z,91.60
2022-12-24T06:26:13.687Z,91.50
2022-12-24T06:28:41.843Z,91.50
2022-12-24T06:31:13.404Z,91.50
2022-12-24T06:33:41.595Z,91.80
2022-12-24T06:36:16.679Z,92.00
2022-12-24T06:38:46.357Z,92.00
2022-12-24T06:41:14.926Z,92.00
2022-12-24T06:43:46.141Z,92.20
2022-12-24T06:46:14.786Z,92.00
2022-12-24T06:48:43.551Z,92.40
2022-12-24T06:51:11.443Z,91.80
2022-12-24T06:53:39.292Z,91.90
2022-12-24T06:56:10.649Z,91.30
2022-12-24T06:58:39.189Z,91.40
2022-12-24T07:01:09.586Z,91.60
2022-12-24T07:03:37.532Z,91.70
2022-12-24T07:06:05.925Z,91.50
2022-12-24T07:08:36.243Z,91.60
2022-12-24T07:11:04.604Z,92.00
2022-12-24T07:13:34.426Z,92.20
2022-12-24T07:16:03.860Z,92.50
2022-12-24T07:18:32.538Z,92.10
2022-12-24T07:21:00.811Z,91.70
2022-12-24T07:23:28.681Z,92.20
2022-12-24T07:25:56.511Z,91.90
2022-12-24T07:28:28.105Z,92.00
2022-12-24T07:30:57.931Z,92.20
2022-12-24T07:33:26.518Z,92.80
2022-12-24T07:36:00.875Z,92.80
2022-12-24T07:38:29.099Z,92.90
2022-12-24T07:40:57.796Z,93.10
2022-12-24T07:43:25.744Z,93.50
2022-12-24T07:45:57.698Z,93.50
2022-12-24T07:48:26.835Z,93.60
2022-12-24T07:50:54.803Z,94.00
2022-12-24T07:53:23.805Z,94.00
2022-12-24T07:55:51.749Z,93.80
2022-12-24T07:58:20.036Z,94.10
2022-12-24T08:00:47.968Z,93.80
2022-12-24T08:03:19.925Z,94.00
2022-12-24T08:05:49.206Z,93.70
2022-12-24T08:08:17.098Z,93.80
2022-12-24T08:10:46.457Z,93.80
2022-12-24T08:13:14.508Z,93.70
2022-12-24T08:15:42.385Z,93.20
2022-12-24T08:18:10.901Z,92.90
2022-12-24T08:20:41.248Z,93.00
2022-12-24T08:23:10.009Z,93.10
2022-12-24T08:25:38.590Z,93.10
2022-12-24T08:28:06.875Z,93.10
2022-12-24T08:30:34.931Z,93.10
2022-12-24T08:33:02.787Z,92.90
2022-12-24T08:35:30.710Z,92.30
2022-12-24T08:38:00.060Z,92.00
2022-12-24T08:40:28.449Z,92.20
2022-12-24T08:42:56.492Z,92.10
2022-12-24T08:45:24.383Z,91.80
2022-12-24T08:47:52.243Z,91.60
2022-12-24T08:50:20.228Z,91.70
2022-12-24T08:52:48.129Z,91.60
2022-12-24T08:55:18.737Z,91.20
2022-12-24T08:57:46.580Z,91.40
2022-12-24T09:00:15.399Z,91.40
2022-12-24T09:02:43.395Z,91.50
2022-12-24T09:05:11.345Z,92.10
2022-12-24T09:07:39.175Z,92.30
2022-12-24T09:10:08.687Z,92.40
2022-12-24T09:12:38.033Z,92.70
2022-12-24T09:15:08.157Z,93.10
2022-12-24T09:17:36.264Z,93.20
2022-12-24T09:20:04.875Z,93.60
2022-12-24T09:22:32.750Z,93.60
2022-12-24T09:25:00.589Z,93.50
2022-12-24T09:27:28.422Z,93.70
2022-12-24T09:29:57.637Z,93.70
2022-12-24T09:32:25.617Z,93.80
2022-12-24T09:34:53.428Z,93.90
2022-12-24T09:37:21.376Z,94.00
2022-12-24T09:39:49.222Z,93.90
2022-12-24T09:42:29.565Z,94.20
2022-12-24T09:45:05.133Z,94.50
2022-12-24T09:47:39.612Z,94.50
2022-12-24T09:50:23.293Z,94.50
2022-12-24T09:52:53.327Z,94.40
2022-12-24T09:55:26.693Z,94.50
2022-12-24T09:57:56.624Z,94.80
2022-12-24T10:00:30.619Z,94.80
2022-12-24T10:02:58.694Z,94.70
2022-12-24T10:05:35.263Z,94.50
2022-12-24T10:08:12.644Z,94.60
2022-12-24T10:10:48.576Z,94.50
2022-12-24T10:13:24.304Z,94.30
2022-12-24T10:15:59.520Z,93.80
2022-12-24T10:18:36.558Z,94.20
2022-12-24T10:21:12.531Z,94.50
2022-12-24T10:23:46.227Z,95.10
2022-12-24T10:26:19.116Z,95.40
2022-12-24T10:28:52.152Z,95.40
2022-12-24T10:31:26.780Z,95.10
2022-12-24T10:33:59.178Z,94.90
2022-12-24T10:36:30.377Z,94.70
2022-12-24T10:38:58.812Z,94.70
2022-12-24T10:41:28.712Z,94.70
2022-12-24T10:43:57.116Z,94.80
2022-12-24T10:46:34.170Z,94.70
2022-12-24T10:49:04.439Z,94.50
2022-12-24T10:51:38.461Z,94.50
2022-12-24T10:54:09.314Z,93.70
2022-12-24T10:56:42.404Z,93.30
2022-12-24T10:59:24.781Z,92.80
2022-12-24T11:01:54.218Z,92.00
2022-12-24T11:04:24.720Z,91.80
2022-12-24T11:06:57.692Z,91.80
2022-12-24T11:09:27.978Z,91.80
2022-12-24T11:11:57.339Z,91.60
2022-12-24T11:14:26.356Z,91.90
2022-12-24T11:16:56.908Z,91.50
2022-12-24T11:19:32.301Z,89.40
2022-12-24T11:22:03.066Z,89.60
2022-12-24T11:24:33.379Z,89.30
2022-12-24T11:27:24.521Z,89.30
2022-12-24T11:29:52.470Z,89.90
2022-12-24T11:32:23.559Z,88.80
2022-12-24T11:34:51.374Z,90.70
2022-12-24T11:37:22.472Z,87.50
2022-12-24T11:39:53.561Z,85.00
2022-12-24T11:42:27.356Z,85.70
2022-12-24T11:44:57.463Z,87.00
2022-12-24T11:47:35.671Z,86.20
2022-12-24T11:50:28.107Z,86.90
2022-12-24T11:53:01.888Z,86.10
2022-12-24T11:55:38.671Z,85.50
2022-12-24T11:58:18.372Z,83.60
2022-12-24T12:00:48.640Z,82.70
2022-12-24T12:03:32.664Z,83.60
2022-12-24T12:06:03.214Z,83.20
2022-12-24T12:08:33.211Z,82.30
2022-12-24T12:11:02.025Z,84.40
2022-12-24T12:13:33.453Z,83.50
2022-12-24T12:16:11.537Z,82.90
2022-12-24T12:18:46.498Z,81.80
2022-12-24T12:21:20.233Z,82.80
2022-12-24T12:23:52.967Z,83.10
2022-12-24T12:26:25.125Z,83.30
2022-12-24T12:28:58.814Z,82.30
2022-12-24T12:31:31.280Z,83.00
2022-12-24T12:34:07.318Z,82.70
2022-12-24T12:36:40.438Z,82.10
2022-12-24T12:39:10.686Z,84.20
2022-12-24T12:41:49.297Z,84.40
2022-12-24T12:44:46.805Z,85.30
2022-12-24T12:47:33.559Z,86.10
2022-12-24T12:50:10.079Z,87.00
2022-12-24T12:53:02.360Z,85.10
2022-12-24T12:55:41.719Z,84.30
2022-12-24T12:58:18.269Z,83.80
2022-12-24T13:00:48.242Z,84.20
2022-12-24T13:03:54.955Z,84.70
2022-12-24T13:06:53.395Z,85.10
2022-12-24T13:09:38.706Z,86.10
2022-12-24T13:12:30.103Z,84.90
2022-12-24T13:15:27.123Z,85.20
2022-12-24T13:18:19.379Z,85.70
2022-12-24T13:20:50.369Z,86.40
2022-12-24T13:23:22.825Z,87.20
2022-12-24T13:25:52.837Z,87.10
2022-12-24T13:28:37.060Z,87.30
2022-12-24T13:31:27.995Z,87.20
2022-12-24T13:33:58.347Z,87.40
2022-12-24T13:36:26.395Z,87.90
2022-12-24T13:38:57.094Z,88.60
2022-12-24T13:41:58.033Z,90.00
2022-12-24T13:44:36.106Z,89.90
2022-12-24T13:47:26.849Z,90.20
2022-12-24T13:50:14.568Z,90.70
2022-12-24T13:52:53.291Z,91.40
2022-12-24T13:55:23.078Z,91.60
2022-12-24T13:57:58.454Z,92.30
2022-12-24T14:00:31.868Z,91.80
2022-12-24T14:03:04.387Z,91.90
2022-12-24T14:05:36.094Z,91.90
2022-12-24T14:08:07.653Z,91.70
2022-12-24T14:10:40.890Z,91.20
2022-12-24T14:13:47.398Z,91.20
2022-12-24T14:16:18.319Z,91.20
2022-12-24T14:18:50.945Z,91.50
2022-12-24T14:21:24.041Z,91.40
2022-12-24T14:23:56.202Z,90.90
2022-12-24T14:26:29.839Z,90.80
2022-12-24T14:29:00.900Z,90.60
2022-12-24T14:31:28.862Z,90.70
2022-12-24T14:34:07.821Z,90.70
2022-12-24T14:36:37.054Z,90.80
2022-12-24T14:39:07.536Z,91.20
2022-12-24T14:41:47.865Z,91.40
2022-12-24T14:44:22.914Z,91.40
2022-12-24T14:46:56.013Z,91.30
2022-12-24T14:49:35.464Z,91.60
2022-12-24T14:52:30.726Z,91.70
2022-12-24T14:54:59.293Z,91.90
2022-12-24T14:57:28.780Z,92.10
2022-12-24T14:59:58.521Z,92.40
2022-12-24T15:02:32.391Z,92.60
2022-12-24T15:05:09.880Z,93.10
2022-12-24T15:07:47.095Z,93.10
2022-12-24T15:10:31.501Z,93.30
2022-12-24T15:13:06.024Z,93.40
2022-12-24T15:15:34.921Z,94.00
2022-12-24T15:18:05.670Z,94.10
2022-12-24T15:20:33.547Z,94.30
2022-12-24T15:23:01.417Z,94.40
2022-12-24T15:25:31.746Z,94.60
2022-12-24T15:28:00.967Z,94.40
2022-12-24T15:30:31.995Z,94.30
2022-12-24T15:33:00.596Z,94.80
2022-12-24T15:35:40.956Z,94.60
2022-12-24T15:38:24.684Z,94.90
2022-12-24T15:40:52.730Z,94.40
2022-12-24T15:43:22.372Z,94.30
2022-12-24T15:45:51.049Z,94.20
2022-12-24T15:48:24.136Z,93.90
2022-12-24T15:50:53.795Z,93.50
2022-12-24T15:53:26.996Z,93.60
2022-12-24T15:56:07.159Z,93.60
2022-12-24T15:58:38.517Z,93.50
2022-12-24T16:01:23.084Z,93.60
2022-12-24T16:04:00.064Z,93.70
2022-12-24T16:06:28.886Z,94.00
2022-12-24T16:09:00.022Z,94.20
2022-12-24T16:11:36.090Z,94.70
2022-12-24T16:14:12.072Z,94.80
2022-12-24T16:16:42.278Z,95.00
2022-12-24T16:19:19.459Z,95.10
2022-12-24T16:21:47.593Z,95.30
2022-12-24T16:24:19.781Z,95.40
2022-12-24T16:26:48.369Z,95.30
2022-12-24T16:29:19.361Z,95.30
2022-12-24T16:31:50.867Z,95.30
2022-12-24T16:34:19.343Z,95.10
2022-12-24T16:36:47.913Z,95.10
2022-12-24T16:39:25.810Z,95.40
2022-12-24T16:42:12.150Z,95.50
2022-12-24T16:44:41.483Z,95.50
2022-12-24T16:47:13.640Z,95.40
2022-12-24T16:49:41.621Z,95.40
2022-12-24T16:52:17.531Z,95.30
2022-12-24T16:54:45.431Z,95.40
2022-12-24T16:57:13.396Z,95.50
2022-12-24T16:59:42.612Z,95.50
2022-12-24T17:02:15.027Z,95.60
2022-12-24T17:04:43.756Z,95.70
2022-12-24T17:07:12.681Z,95.80
2022-12-24T17:09:40.742Z,95.80
2022-12-24T17:12:09.025Z,95.80
2022-12-24T17:14:37.281Z,95.80
2022-12-24T17:17:06.510Z,95.80
2022-12-24T17:19:34.611Z,95.60
2022-12-24T17:22:02.449Z,95.70
2022-12-24T17:24:30.304Z,95.70
2022-12-24T17:26:58.166Z,95.70
2022-12-24T17:29:25.988Z,95.70
2022-12-24T17:31:53.821Z,95.40
2022-12-24T17:34:23.059Z,95.50
2022-12-24T17:36:50.899Z,95.10
2022-12-24T17:39:25.705Z,94.60
2022-12-24T17:41:55.412Z,94.60
2022-12-24T17:44:23.337Z,95.10
2022-12-24T17:46:51.331Z,95.60
2022-12-24T17:49:19.226Z,96.10
2022-12-24T17:51:48.637Z,96.30
2022-12-24T17:54:16.494Z,95.00
2022-12-24T17:56:44.406Z,94.40
2022-12-24T17:59:12.288Z,95.00
2022-12-24T18:01:40.197Z,95.50
2022-12-24T18:04:08.239Z,95.40
2022-12-24T18:06:36.116Z,95.40
2022-12-24T18:09:05.414Z,95.50
2022-12-24T18:11:34.635Z,95.60
2022-12-24T18:14:04.016Z,95.70
2022-12-24T18:16:33.643Z,95.90
2022-12-24T18:19:01.954Z,96.10
2022-12-24T18:21:33.353Z,95.90
2022-12-24T18:24:01.473Z,95.70
2022-12-24T18:26:33.152Z,95.60
2022-12-24T18:29:04.453Z,95.70
2022-12-24T18:31:33.669Z,95.80
2022-12-24T18:34:03.246Z,96.00
2022-12-24T18:36:31.129Z,96.10
2022-12-24T18:38:59.206Z,96.10
2022-12-24T18:41:29.333Z,96.10
2022-12-24T18:43:59.408Z,96.10
2022-12-24T18:46:29.263Z,96.40
2022-12-24T18:48:59.491Z,96.60
2022-12-24T18:51:30.635Z,96.60
2022-12-24T18:53:58.467Z,96.70
2022-12-24T18:56:27.795Z,96.80
2022-12-24T18:58:58.362Z,96.90
2022-12-24T19:01:28.332Z,97.00
2022-12-24T19:03:56.705Z,97.20
2022-12-24T19:06:25.349Z,97.40
2022-12-24T19:09:01.778Z,97.50
2022-12-24T19:11:32.018Z,97.50
2022-12-24T19:14:02.226Z,97.50
2022-12-24T19:16:31.919Z,97.50
2022-12-24T19:19:00.117Z,97.50
2022-12-24T19:21:28.244Z,97.50
2022-12-24T19:23:56.073Z,97.50
2022-12-24T19:26:24.212Z,97.40
2022-12-24T19:28:52.732Z,97.40
2022-12-24T19:31:23.912Z,97.50
2022-12-24T19:33:53.688Z,97.60
2022-12-24T19:36:23.614Z,97.60
2022-12-24T19:38:51.693Z,97.70
2022-12-24T19:41:21.143Z,97.30
2022-12-24T19:43:50.706Z,97.20
2022-12-24T19:46:19.970Z,97.30
2022-12-24T19:48:52.112Z,97.40
2022-12-24T19:51:20.543Z,97.50
2022-12-24T19:53:48.713Z,97.60
2022-12-24T19:56:17.219Z,97.60
2022-12-24T19:58:45.395Z,97.70
2022-12-24T20:01:16.201Z,97.70
2022-12-24T20:03:44.947Z,97.70
2022-12-24T20:06:14.546Z,97.70
2022-12-24T20:08:42.455Z,97.70
2022-12-24T20:11:14.141Z,97.70
2022-12-24T20:13:43.388Z,97.60
2022-12-24T20:16:13.449Z,97.60
2022-12-24T20:18:41.298Z,97.30
2022-12-24T20:21:11.301Z,97.20
2022-12-24T20:23:41.084Z,97.40
2022-12-24T20:26:11.644Z,97.50
2022-12-24T20:28:40.068Z,97.60
2022-12-24T20:31:12.666Z,97.60
2022-12-24T20:33:40.664Z,97.70
2022-12-24T20:36:09.616Z,97.80
2022-12-24T20:38:37.849Z,97.80
2022-12-24T20:41:09.745Z,97.90
2022-12-24T20:43:45.127Z,97.80
2022-12-24T20:46:16.195Z,97.90
2022-12-24T20:48:44.150Z,97.80
2022-12-24T20:51:21.026Z,97.90
2022-12-24T20:53:51.948Z,97.90
2022-12-24T20:56:21.379Z,97.90
2022-12-24T20:58:49.738Z,97.90
2022-12-24T21:01:20.066Z,97.90
2022-12-24T21:03:48.065Z,97.90
2022-12-24T21:06:17.985Z,97.90
2022-12-24T21:08:46.183Z,98.00
2022-12-24T21:11:31.598Z,98.00
2022-12-24T21:14:02.100Z,98.00
2022-12-24T21:16:31.288Z,97.90
2022-12-24T21:18:59.437Z,97.90
2022-12-24T21:21:27.325Z,97.90
2022-12-24T21:23:55.921Z,97.90
2022-12-24T21:26:24.160Z,97.90
2022-12-24T21:28:51.974Z,97.90
2022-12-24T21:31:21.653Z,98.00
2022-12-24T21:33:49.603Z,97.90
2022-12-24T21:36:18.076Z,97.90
2022-12-24T21:38:46.050Z,97.80
2022-12-24T21:41:15.768Z,97.60
2022-12-24T21:43:43.989Z,97.60
2022-12-24T21:46:14.367Z,97.40
2022-12-24T21:49:01.306Z,97.50
2022-12-24T21:51:29.987Z,97.60
2022-12-24T21:54:15.726Z,97.80
2022-12-24T21:57:01.299Z,97.80
2022-12-24T21:59:29.289Z,97.70
2022-12-24T22:01:58.000Z,97.60
2022-12-24T22:04:28.170Z,97.50
2022-12-24T22:07:13.790Z,97.40
2022-12-24T22:09:59.053Z,97.50
2022-12-24T22:12:30.353Z,97.50
2022-12-24T22:14:58.345Z,97.60
2022-12-24T22:17:26.250Z,97.50
2022-12-24T22:19:55.524Z,97.50
2022-12-24T22:22:24.079Z,97.60
2022-12-24T22:24:51.944Z,97.60
2022-12-24T22:27:19.836Z,97.60
2022-12-24T22:29:47.750Z,97.70
2022-12-24T22:32:15.637Z,97.70
2022-12-24T22:34:43.576Z,97.70
2022-12-24T22:37:13.260Z,97.70
2022-12-24T22:39:41.116Z,97.70
2022-12-24T22:42:08.988Z,97.80
2022-12-24T22:44:36.803Z,97.90
2022-12-24T22:47:04.704Z,97.80
2022-12-24T22:49:32.835Z,97.80
2022-12-24T22:52:00.799Z,97.70
2022-12-24T22:54:29.954Z,97.50
2022-12-24T22:56:58.840Z,97.30
2022-12-24T22:59:26.652Z,97.50
2022-12-24T23:01:55.853Z,97.50
2022-12-24T23:04:23.947Z,97.50
2022-12-24T23:06:52.152Z,97.50
2022-12-24T23:09:20.905Z,97.50
2022-12-24T23:11:50.084Z,97.60
2022-12-24T23:14:37.171Z,97.60
2022-12-24T23:17:06.178Z,97.60
2022-12-24T23:19:34.587Z,97.70
2022-12-24T23:22:03.909Z,97.70
2022-12-24T23:24:32.657Z,97.80
2022-12-24T23:27:02.406Z,97.80
2022-12-24T23:29:30.579Z,97.80
2022-12-24T23:31:59.034Z,97.80
2022-12-24T23:34:27.130Z,97.90
2022-12-24T23:36:54.969Z,97.80
2022-12-24T23:39:23.005Z,97.90
2022-12-24T23:41:50.884Z,97.90
2022-12-24T23:44:20.040Z,97.80
2022-12-24T23:46:47.927Z,97.70
2022-12-24T23:49:16.053Z,97.70
2022-12-24T23:51:43.970Z,97.60
2022-12-24T23:54:11.807Z,97.60
2022-12-24T23:56:39.678Z,97.60
2022-12-24T23:59:07.516Z,97.70
